TFM - Tactical Decision Aid (Experimental) INFO Settings
ID: Runway Winds: CIG/VIS Threshold: METAR Board: Map:

KIAD - Washington-Dulles Intl

Updated at: 0808 UTC 25 Jul 2016
Latest TAF at: 0528 UTC 25 Jul 2016

TAF Board

Time0752Z25/09Z25/10Z25/11Z25/12Z25/13Z25/14Z25/15Z25/16Z25/17Z25/18Z25/19Z25/20Z25/21Z
TypeOBSPRVLPRVLPRVLPRVLPRVLPRVLPRVLPRVLPRVLPRVLPRVLPRVLPRVL
VIS10>6>6>6>6>6>6>6>6>6>6>6>6>6
CIG60909090909090--------------
CoverBKNBKNBKNBKNBKNBKNBKNSCTSCTSCTSCTSCTSCTSCT
FltCatVFRVFRVFRVFRVFRVFRVFRVFRVFRVFRVFRVFRVFRVFR
WX----------------------------
WDirVRBVRBVRBVRBVRBVRBVRB250250250250250250250
WSpd03333336666666
WGst----------------------------
TAF
KIAD 250528Z 2506/2612 VRB03KT P6SM VCTS BKN090CB
  FM250900 VRB03KT P6SM BKN090
  FM251500 25006KT P6SM SCT060
  FM261000 31004KT P6SM BKN060


METAR
KIAD 250752Z COR 00000KT 10SM BKN060 26/23 A2997 RMK AO2 SLP145 T02560228
KIAD 250652Z 03005KT 10SM SCT060 27/22 A2997 RMK AO2 SLP146 T02670217

TAF/METAR Board Legend

Potential Impact
  None Marginal Slight Moderate High
Visibility (sm) >5 3≤X≤5 1≤X<3 0.5≤X<1 <0.5
Ceiling (100 ft) >30 10≤X≤30 4≤X<10 2≤X<4 <2
Wind Speed (kt) <10 10≤X<20 20≤X<30 ≥30
Wind Gust (kt) <15 15≤X<25 25≤X<35 ≥35
Weather No Wx Reported VCTS -TS,-FZRA TS,FZRA +TS,+FZRA




Page loaded:  08:08 UTC  |   01:08 AM Pacific  |   02:08 AM Mountain  |   03:08 AM Central  |   04:08 AM Eastern